Flight Track Log - Related Links

Times and Time Zones

All times are in EDT time to prevent confusion due to time zone crossing. See the SWA1096 flight status page for this flight to view local times or setup timezone preferences in your user account.

Time Position Orientation Groundspeed Altitude Reporting Facility
EDT Latitude Longitude Course Direction KTS MPH feet Rate Location/Type
Thu 09:11:45 AM 36.1047 -115.1508 90° East 144 166 3,900  Level Los Angeles Center
Thu 09:12:52 AM 36.1333 -115.0933 58° Northeast 221 254 6,600 2,488 Climbing Los Angeles Center
Thu 09:13:07 AM 36.1358 -115.0675 83° East 225 259 7,300 3,316 Climbing Los Angeles Center
Thu 09:14:08 AM 36.1439 -114.9753 84° East 262 302 10,800 3,393 Climbing Los Angeles Center
Thu 09:15:09 AM 36.1547 -114.8658 83° East 308 354 14,200 3,570 Climbing Los Angeles Center
Thu 09:16:09 AM 36.1756 -114.7497 77° East 341 392 18,000 3,273 Climbing Los Angeles Center
Thu 09:17:00 AM 36.1834 -114.4548 90° East  Level FlightAware Approximate
Thu 09:17:10 AM 36.1906 -114.6228 82° East 372 428 20,800  Level Los Angeles Center
Thu 09:18:11 AM 36.2125 -114.4950 78° East 392 451 23,000 1,623 Climbing Los Angeles Center
Thu 09:19:12 AM 36.2964 -114.4331 31° Northeast 357 411 24,100 1,934 Climbing Los Angeles Center
Thu 09:20:12 AM 36.3881 -114.3719 28° Northeast 369 425 26,900 3,025 Climbing Los Angeles Center
Thu 09:21:13 AM 36.4808 -114.3094 28° Northeast 378 435 30,200 2,951 Climbing Los Angeles Center
Thu 09:22:14 AM 36.5719 -114.2492 28° Northeast 372 428 32,900 1,377 Climbing Los Angeles Center
Thu 09:23:15 AM 36.6586 -114.1917 28° Northeast 372 428 33,000 49 Climbing Los Angeles Center
Thu 09:24:16 AM 36.7681 -114.1167 29° Northeast 375 432 33,000  Level Los Angeles Center
Thu 09:25:17 AM 36.8447 -114.0642 29° Northeast 370 426 33,000  Level Los Angeles Center
Thu 09:26:17 AM 36.9353 -114.0028 28° Northeast 371 427 33,000  Level Los Angeles Center
Thu 09:27:18 AM 37.0256 -113.9414 28° Northeast 369 425 33,000  Level Los Angeles Center
Thu 09:28:19 AM 37.1308 -113.8697 28° Northeast 373 429 33,000  Level Los Angeles Center
Thu 09:29:20 AM 37.2231 -113.8075 28° Northeast 375 432 33,000  Level Los Angeles Center
Thu 09:30:21 AM 37.3147 -113.7439 29° Northeast 376 433 33,000  Level Los Angeles Center
Thu 09:31:29 AM 37.4236 -113.6664 29° Northeast 376 433 33,000  Level Salt Lake Center
Thu 09:32:30 AM 37.5158 -113.6047 28° Northeast 375 432 33,000  Level Salt Lake Center
Thu 09:33:32 AM 37.6094 -113.5408 28° Northeast 379 436 33,000  Level Salt Lake Center
Thu 09:34:33 AM 37.7025 -113.4761 29° Northeast 379 436 33,000  Level Salt Lake Center
Thu 09:35:34 AM 37.7950 -113.4122 29° Northeast 378 435 33,000 -344 Level Salt Lake Center
Thu 09:36:35 AM 37.8878 -113.3478 29° Northeast 377 434 32,300 -492 Descending Salt Lake Center
Thu 09:37:36 AM 37.9789 -113.2836 29° Northeast 374 430 32,000 -146 Descending Salt Lake Center
Thu 09:38:38 AM 38.0689 -113.2208 29° Northeast 370 426 32,000  Level Salt Lake Center
Thu 09:39:39 AM 38.1600 -113.1564 29° Northeast 371 427 32,000  Level Salt Lake Center
Thu 09:40:40 AM 38.2500 -113.0933 29° Northeast 370 426 32,000  Level Salt Lake Center
Thu 09:41:41 AM 38.3394 -113.0283 30° Northeast 370 426 32,000  Level Salt Lake Center
Thu 09:42:42 AM 38.4325 -112.9747 24° Northeast 368 423 32,000  Level Salt Lake Center
Thu 09:43:43 AM 38.5450 -112.9172 22° Northeast 364 419 32,000  Level Salt Lake Center
Thu 09:44:44 AM 38.6381 -112.8669 23° Northeast 364 419 32,000  Level Salt Lake Center
Thu 09:45:46 AM 38.7294 -112.8169 23° Northeast 359 413 32,000  Level Salt Lake Center
Thu 09:46:47 AM 38.8192 -112.7678 23° Northeast 353 406 32,000  Level Salt Lake Center
Thu 09:47:48 AM 38.9100 -112.7197 22° Northeast 352 405 32,000  Level Salt Lake Center
Thu 09:48:49 AM 38.9992 -112.6700 23° Northeast 350 403 32,000  Level Salt Lake Center
Thu 09:49:50 AM 39.0892 -112.6225 22° Northeast 350 403 32,000  Level Salt Lake Center
Thu 09:50:52 AM 39.1781 -112.5739 23° Northeast 349 402 32,000  Level Salt Lake Center
Thu 09:51:53 AM 39.2794 -112.5183 23° Northeast 348 400 32,000 -590 Level Salt Lake Center
Thu 09:52:54 AM 39.3689 -112.4689 23° Northeast 350 403 30,800 -1,918 Descending Salt Lake Center
Thu 09:53:55 AM 39.4558 -112.4181 24° Northeast 345 397 28,100 -2,341 Descending Salt Lake Center
Thu 09:54:57 AM 39.5403 -112.3700 24° Northeast 337 388 26,000 -2,049 Descending Salt Lake Center
Thu 09:55:58 AM 39.6208 -112.3236 24° Northeast 321 369 23,900 -1,967 Descending Salt Lake Center
Thu 09:56:59 AM 39.6969 -112.2786 24° Northeast 304 350 22,000 -1,854 Descending Salt Lake Center
Thu 09:58:01 AM 39.7708 -112.2358 24° Northeast 294 338 20,100 -1,854 Descending Salt Lake Center
Thu 09:59:02 AM 39.8458 -112.1919 24° Northeast 295 339 18,200 -2,049 Descending Salt Lake Center
Thu 10:00:04 AM 39.9339 -112.1392 25° Northeast 291 335 15,900 -1,561 Descending Salt Lake Center
Thu 10:01:05 AM 40.0061 -112.0972 24° Northeast 285 328 15,000 -600 Descending Salt Lake Center
Thu 10:01:34 AM 40.0356 -112.0872 15° North 285 328 15,000 -197 Level Salt Lake Center
Thu 10:02:06 AM 40.0769 -112.0536 32° Northeast 283 326 14,800 -727 Descending Salt Lake Center
Thu 10:02:40 AM 40.1203 -112.0364 17° North 282 325 14,200 -968 Descending Salt Lake Center
Thu 10:03:08 AM 40.1492 -112.0111 34° Northeast 285 328 13,800 -885 Descending Salt Lake Center
Thu 10:03:41 AM 40.1914 -111.9931 18° North 285 328 13,300 -984 Descending Salt Lake Center
Thu 10:04:09 AM 40.2208 -111.9686 32° Northeast 282 325 12,800 -1,091 Descending Salt Lake Center
Thu 10:04:36 AM 40.2553 -111.9572 14° North 283 326 12,300 -1,082 Descending Salt Lake Center
Thu 10:05:10 AM 40.2939 -111.9492 North 275 316 11,700 -1,300 Descending Salt Lake Center
Thu 10:05:36 AM 40.3306 -111.9572 350° North 267 307 11,000 -1,258 Descending Salt Lake Center
Thu 10:06:12 AM 40.3669 -111.9547 North 265 305 10,400 -928 Descending Salt Lake Center
Thu 10:07:13 AM 40.4358 -111.9558 359° North 250 288 9,500 -652 Descending Salt Lake Center
Thu 10:07:44 AM 40.4808 -111.9656 351° North 252 290 9,400 -290 Descending Salt Lake Center
Thu 10:08:15 AM 40.5047 -111.9633 North 249 287 9,200 -1,435 Descending Salt Lake Center
Thu 10:09:16 AM 40.5900 -111.9733 355° North 256 295 7,200 -1,846 Descending Salt Lake Center
Thu 10:09:33 AM 40.6064 -111.9794 344° North 257 296 6,800 -484 Descending Salt Lake Center
Thu 10:10:18 AM 40.6578 -111.9811 359° North 243 280 6,700 -393 Descending Salt Lake Center
Thu 10:10:34 AM 40.6675 -111.9842 347° North 209 241 6,400 -984 Descending Salt Lake Center
Thu 10:11:19 AM 40.7033 -111.9864 357° North 171 197 5,700 -900 Descending Salt Lake Center
Thu 10:11:34 AM 40.7142 -111.9908 343° North 153 176 5,500 -677 Descending Salt Lake Center
Thu 10:12:21 AM 40.7397 -111.9906 360° North 136 157 5,000 -667 Descending Salt Lake Center
Thu 10:13:22 AM 40.7753 -111.9950 355° North 129 148 4,300 -689 Descending Salt Lake Center
Thu 10:15:00 AM 40.7833 -111.9667 North  Level FlightAware Approximate

Login

Don't have an account? Register now (free) for customized features, flight alerts, and more!